Time;durP1;ratioP1;P1;durP2;ratioP2;P2;SDS_P1;SDS_P2;PMS_P1;PMS_P2;Temp;Humidity;BMP_temperature;BMP_pressure;BME280_temperature;BME280_humidity;BME280_pressure;Samples;Min_cycle;Max_cycle;Signal;HPM_P1;HPM_P2
2023/03/08 00:01:00;;;;;;;8.98;4.45;;;10.10;96.90;;;;;;4935849;29;20040;-73
2023/03/08 00:03:26;;;;;;;9.25;4.60;;;10.10;96.90;;;;;;4935624;29;20035;-74
2023/03/08 00:05:53;;;;;;;12.00;4.22;;;10.10;96.60;;;;;;4918591;29;20485;-73
2023/03/08 00:08:19;;;;;;;12.80;4.80;;;10.10;96.70;;;;;;4935711;29;20036;-72
2023/03/08 00:10:45;;;;;;;9.32;4.07;;;10.10;96.80;;;;;;4935607;29;20039;-75
2023/03/08 00:13:11;;;;;;;7.47;4.18;;;10.10;96.60;;;;;;4935485;29;20118;-74
2023/03/08 00:15:37;;;;;;;11.35;5.82;;;10.10;96.70;;;;;;4935580;29;20071;-73
2023/03/08 00:18:04;;;;;;;12.60;6.03;;;10.10;96.40;;;;;;4935523;29;20042;-75
2023/03/08 00:20:30;;;;;;;18.50;8.73;;;10.00;96.60;;;;;;4935511;29;20139;-73
2023/03/08 00:22:56;;;;;;;19.50;7.90;;;10.00;97.00;;;;;;4935448;29;20185;-75
2023/03/08 00:25:21;;;;;;;19.17;9.35;;;9.90;96.70;;;;;;4935440;29;20112;-75
2023/03/08 00:27:47;;;;;;;19.13;9.45;;;9.90;96.80;;;;;;4935990;29;20032;-74
2023/03/08 00:30:14;;;;;;;21.05;8.52;;;9.90;97.40;;;;;;4937230;29;20035;-74
2023/03/08 00:32:39;;;;;;;20.17;8.32;;;9.90;97.40;;;;;;4938807;29;20038;-74
2023/03/08 00:35:06;;;;;;;14.18;6.57;;;9.90;97.40;;;;;;4921587;29;20381;-75
2023/03/08 00:37:32;;;;;;;15.27;6.80;;;9.90;97.60;;;;;;4938766;29;20078;-75
2023/03/08 00:39:57;;;;;;;19.17;7.82;;;9.90;97.50;;;;;;4939197;29;20430;-75
2023/03/08 00:42:24;;;;;;;14.30;7.22;;;9.90;97.50;;;;;;4938458;29;20059;-76
2023/03/08 00:44:50;;;;;;;12.38;6.68;;;9.90;97.30;;;;;;4938974;29;20031;-72
2023/03/08 00:47:16;;;;;;;14.25;7.28;;;9.90;97.60;;;;;;4921428;29;20023;-75
2023/03/08 00:49:42;;;;;;;14.85;7.32;;;9.90;97.30;;;;;;4938481;29;20097;-74
2023/03/08 00:52:09;;;;;;;15.88;7.15;;;9.90;97.40;;;;;;4938466;29;20102;-74
2023/03/08 00:54:36;;;;;;;17.50;8.43;;;9.90;97.30;;;;;;4938826;29;20020;-73
2023/03/08 00:57:02;;;;;;;19.25;9.00;;;9.90;97.60;;;;;;4938045;29;20477;-74
2023/03/08 00:59:28;;;;;;;20.75;9.23;;;9.90;97.30;;;;;;4921216;29;20044;-75
2023/03/08 01:01:55;;;;;;;19.65;8.80;;;9.90;97.60;;;;;;4921201;29;20079;-74
2023/03/08 01:04:23;;;;;;;20.98;10.00;;;9.90;97.60;;;;;;4938436;29;20031;-74
2023/03/08 01:06:50;;;;;;;18.52;9.80;;;9.90;97.40;;;;;;4938028;29;20116;-74
2023/03/08 01:09:16;;;;;;;16.23;8.43;;;9.90;97.80;;;;;;4937382;29;20128;-74
2023/03/08 01:11:43;;;;;;;21.73;10.10;;;9.90;97.60;;;;;;4921085;29;20028;-74
2023/03/08 01:14:09;;;;;;;22.42;9.45;;;9.90;98.30;;;;;;4936438;29;20043;-74
2023/03/08 01:16:35;;;;;;;19.63;9.52;;;9.90;97.70;;;;;;4936774;29;20359;-73
2023/03/08 01:19:03;;;;;;;22.65;9.60;;;9.90;97.90;;;;;;4937738;29;20075;-74
2023/03/08 01:21:30;;;;;;;18.65;9.18;;;9.90;97.90;;;;;;4920984;29;20028;-74
2023/03/08 01:23:56;;;;;;;14.55;7.60;;;9.80;98.00;;;;;;4920954;29;20042;-74
2023/03/08 01:26:25;;;;;;;15.38;7.53;;;9.80;98.00;;;;;;4937663;29;20430;-72
2023/03/08 01:28:54;;;;;;;15.77;7.25;;;9.80;98.50;;;;;;4920387;29;20044;-73
2023/03/08 01:31:25;;;;;;;17.85;6.97;;;9.70;98.70;;;;;;4925138;29;20484;-72
2023/03/08 01:33:53;;;;;;;14.17;7.37;;;9.70;98.80;;;;;;4920641;29;20032;-73
2023/03/08 01:36:21;;;;;;;13.15;6.03;;;9.70;99.00;;;;;;4937899;29;20030;-73
2023/03/08 01:38:47;;;;;;;12.60;5.95;;;9.70;99.20;;;;;;4919534;29;20083;-73
2023/03/08 01:41:17;;;;;;;14.85;6.57;;;9.70;99.40;;;;;;4937972;29;20107;-73
2023/03/08 01:43:43;;;;;;;13.85;6.40;;;9.70;98.80;;;;;;4937391;29;20039;-73
2023/03/08 01:46:20;;;;;;;13.18;6.43;;;9.70;98.80;;;;;;4920542;29;20020;-73
2023/03/08 01:49:26;;;;;;;13.60;6.65;;;9.70;98.80;;;;;;4936033;29;20481;-75
2023/03/08 01:51:55;;;;;;;13.50;6.03;;;9.70;99.50;;;;;;4931847;29;20035;-72
2023/03/08 01:54:33;;;;;;;14.38;6.75;;;9.70;99.20;;;;;;4936193;29;20035;-73
2023/03/08 01:57:07;;;;;;;13.00;6.38;;;9.70;99.00;;;;;;4936129;29;20043;-75
2023/03/08 01:59:34;;;;;;;13.80;6.80;;;9.70;99.20;;;;;;4937105;29;20494;-75
2023/03/08 02:02:01;;;;;;;14.60;6.30;;;9.70;98.80;;;;;;4920227;29;20478;-76
2023/03/08 02:04:28;;;;;;;16.40;7.38;;;9.70;99.00;;;;;;4935962;29;20043;-75
2023/03/08 02:06:55;;;;;;;14.80;7.05;;;9.70;99.00;;;;;;4919942;29;20472;-75
2023/03/08 02:09:23;;;;;;;13.85;7.13;;;9.70;99.00;;;;;;4935563;29;20541;-75
2023/03/08 02:11:52;;;;;;;17.02;7.95;;;9.70;99.40;;;;;;4919951;29;20509;-74
2023/03/08 02:14:17;;;;;;;18.88;9.88;;;9.60;99.10;;;;;;4937027;29;20393;-75
2023/03/08 02:16:47;;;;;;;20.08;10.07;;;9.60;99.20;;;;;;4919656;29;20470;-75
2023/03/08 02:19:22;;;;;;;21.02;11.57;;;9.60;99.40;;;;;;4920058;29;20035;-74
2023/03/08 02:21:48;;;;;;;18.27;10.10;;;9.50;99.40;;;;;;4924214;29;20038;-75
2023/03/08 02:24:19;;;;;;;16.55;8.82;;;9.50;99.50;;;;;;4918980;29;20131;-74
2023/03/08 02:26:46;;;;;;;20.45;9.55;;;9.50;99.30;;;;;;4919496;29;20036;-74
2023/03/08 02:29:11;;;;;;;29.27;16.83;;;9.50;99.30;;;;;;4919661;29;20054;-73
2023/03/08 02:31:37;;;;;;;34.17;19.60;;;9.60;99.30;;;;;;4935546;29;20032;-74
2023/03/08 02:34:03;;;;;;;30.70;18.42;;;9.60;99.30;;;;;;4919724;29;20020;-74
2023/03/08 02:36:30;;;;;;;37.53;21.88;;;9.60;99.30;;;;;;4936864;29;20035;-76
2023/03/08 02:38:56;;;;;;;36.72;18.77;;;9.60;99.50;;;;;;4936045;29;20035;-76
2023/03/08 02:41:22;;;;;;;46.30;26.45;;;9.60;99.60;;;;;;4936797;29;20028;-73
2023/03/08 02:43:47;;;;;;;36.95;20.98;;;9.60;99.60;;;;;;4936321;29;20058;-73
2023/03/08 02:46:14;;;;;;;31.38;16.55;;;9.60;99.90;;;;;;4935300;29;20091;-74
2023/03/08 02:48:40;;;;;;;17.60;8.80;;;9.50;99.90;;;;;;4918725;29;20500;-75
2023/03/08 02:51:06;;;;;;;13.95;7.10;;;9.50;99.90;;;;;;4918678;29;20071;-75
2023/03/08 02:53:33;;;;;;;17.77;6.43;;;9.50;99.80;;;;;;4918986;29;20031;-75
2023/03/08 02:55:59;;;;;;;13.88;6.20;;;9.50;99.50;;;;;;4936569;29;20039;-75
2023/03/08 02:58:25;;;;;;;11.57;5.68;;;9.50;99.60;;;;;;4935839;29;20031;-75
2023/03/08 03:00:51;;;;;;;11.70;5.45;;;9.50;99.70;;;;;;4918927;29;20122;-75
2023/03/08 03:03:17;;;;;;;12.82;5.85;;;9.60;99.40;;;;;;4946209;29;20039;-75
2023/03/08 03:05:44;;;;;;;10.75;5.43;;;9.60;99.30;;;;;;4921712;28;20055;-73
2023/03/08 03:08:13;;;;;;;13.10;5.57;;;9.60;99.50;;;;;;4918823;29;20042;-74
2023/03/08 03:10:40;;;;;;;15.63;6.28;;;9.70;99.30;;;;;;4936011;29;20457;-74
2023/03/08 03:13:06;;;;;;;14.35;6.18;;;9.70;99.10;;;;;;4927756;29;20391;-75
2023/03/08 03:15:36;;;;;;;14.60;6.38;;;9.70;99.40;;;;;;4930892;29;20035;-74
2023/03/08 03:18:04;;;;;;;13.07;5.85;;;9.70;99.30;;;;;;4934243;29;20401;-74
2023/03/08 03:20:30;;;;;;;13.60;6.55;;;9.70;99.70;;;;;;4934255;29;20099;-74
2023/03/08 03:22:57;;;;;;;13.80;6.55;;;9.70;99.80;;;;;;4935771;29;20108;-74
2023/03/08 03:25:28;;;;;;;12.77;5.82;;;9.70;99.90;;;;;;4919074;29;20056;-73
2023/03/08 03:27:55;;;;;;;11.50;5.70;;;9.60;99.70;;;;;;4934173;29;20505;-74
2023/03/08 03:30:22;;;;;;;13.95;6.65;;;9.60;99.70;;;;;;4934335;29;20122;-74
2023/03/08 03:32:49;;;;;;;15.77;8.10;;;9.60;99.90;;;;;;4934633;29;20024;-74
2023/03/08 03:35:20;;;;;;;20.23;11.50;;;9.60;99.90;;;;;;4918840;29;20113;-73
2023/03/08 03:37:46;;;;;;;15.57;8.60;;;9.60;99.80;;;;;;4934167;29;20393;-74
2023/03/08 03:40:13;;;;;;;18.80;9.23;;;9.60;99.80;;;;;;4918765;29;20028;-75
2023/03/08 03:42:40;;;;;;;23.00;11.35;;;9.60;99.70;;;;;;4934336;29;20035;-74
2023/03/08 03:45:11;;;;;;;27.80;15.52;;;9.60;99.90;;;;;;4918497;29;20042;-74
2023/03/08 03:47:38;;;;;;;25.10;13.95;;;9.60;99.90;;;;;;4918926;29;20024;-74
2023/03/08 03:50:06;;;;;;;26.67;15.35;;;9.60;99.50;;;;;;4917399;29;20389;-74
2023/03/08 03:52:43;;;;;;;23.63;13.48;;;9.60;99.80;;;;;;4921439;29;20556;-74
2023/03/08 03:55:09;;;;;;;20.65;11.05;;;9.60;99.90;;;;;;4935502;29;20031;-75
2023/03/08 03:57:35;;;;;;;22.08;10.50;;;9.50;99.90;;;;;;4934304;29;20075;-75
2023/03/08 04:00:02;;;;;;;18.73;8.98;;;9.60;99.90;;;;;;4934534;29;20059;-74
2023/03/08 04:02:39;;;;;;;17.15;7.68;;;9.60;99.60;;;;;;4940938;29;20047;-76
2023/03/08 04:05:05;;;;;;;12.63;6.65;;;9.60;99.30;;;;;;4922273;29;20066;-75
2023/03/08 04:07:33;;;;;;;15.82;7.20;;;9.60;99.10;;;;;;4921934;29;20047;-73
2023/03/08 04:10:00;;;;;;;12.55;5.75;;;9.70;98.80;;;;;;4922299;29;20027;-72
2023/03/08 04:12:26;;;;;;;13.10;5.78;;;9.70;98.70;;;;;;4938232;29;20020;-74
2023/03/08 04:14:54;;;;;;;17.48;6.35;;;9.80;98.80;;;;;;4937830;29;20481;-74
2023/03/08 04:17:22;;;;;;;14.75;7.00;;;9.80;99.20;;;;;;4922140;29;20039;-74
2023/03/08 04:19:51;;;;;;;20.10;9.43;;;9.80;99.20;;;;;;4937694;29;20043;-75
2023/03/08 04:22:18;;;;;;;16.42;8.88;;;9.70;99.80;;;;;;4921899;29;20060;-76
2023/03/08 04:24:53;;;;;;;17.52;6.75;;;9.80;99.90;;;;;;4938109;29;20118;-76
2023/03/08 04:27:25;;;;;;;21.43;7.17;;;9.70;99.60;;;;;;4921282;29;20019;-76
2023/03/08 04:29:52;;;;;;;15.75;6.72;;;9.80;99.20;;;;;;4937814;29;20067;-75
2023/03/08 04:32:18;;;;;;;12.15;5.45;;;9.80;99.10;;;;;;4921579;29;20028;-76
2023/03/08 04:34:50;;;;;;;13.95;5.07;;;9.80;98.30;;;;;;4937828;29;20063;-76
2023/03/08 04:37:19;;;;;;;10.68;4.68;;;9.90;97.90;;;;;;4937224;29;20154;-76
2023/03/08 04:39:49;;;;;;;14.25;5.18;;;9.90;97.20;;;;;;4921925;29;20028;-75
2023/03/08 04:42:16;;;;;;;10.95;4.70;;;10.00;96.80;;;;;;4937414;29;20023;-75
2023/03/08 04:44:43;;;;;;;8.93;4.43;;;10.00;96.50;;;;;;4937445;29;20488;-74
2023/03/08 04:47:11;;;;;;;13.20;5.95;;;10.10;96.60;;;;;;4937197;29;20034;-75
2023/03/08 04:49:43;;;;;;;20.77;9.13;;;10.10;96.90;;;;;;4923545;29;20035;-75
2023/03/08 04:52:09;;;;;;;29.55;10.48;;;10.10;97.50;;;;;;4938500;29;20030;-75
2023/03/08 04:54:37;;;;;;;23.52;10.95;;;10.00;97.60;;;;;;4937507;29;20027;-76
2023/03/08 04:57:10;;;;;;;;;;;10.00;97.40;;;;;;4937245;29;20026;-74
2023/03/08 04:59:37;;;;;;;26.98;12.82;;;10.00;97.20;;;;;;4921186;29;20273;-75
2023/03/08 05:02:04;;;;;;;23.85;11.38;;;10.00;97.00;;;;;;4921469;29;20067;-75
2023/03/08 05:04:33;;;;;;;26.08;12.18;;;10.00;96.90;;;;;;4921369;29;20401;-76
2023/03/08 05:06:59;;;;;;;28.55;12.98;;;10.00;98.10;;;;;;4920747;29;20079;-75
2023/03/08 05:09:28;;;;;;;34.00;17.08;;;9.90;98.20;;;;;;4921569;29;20028;-75
2023/03/08 05:11:54;;;;;;;24.17;11.73;;;9.80;98.60;;;;;;4936187;29;20413;-74
2023/03/08 05:14:21;;;;;;;26.83;11.80;;;9.70;99.00;;;;;;4920514;29;20102;-75
2023/03/08 05:16:48;;;;;;;23.00;11.73;;;9.70;99.10;;;;;;4919892;29;20020;-75
2023/03/08 05:19:15;;;;;;;21.35;9.77;;;9.70;98.50;;;;;;4937854;29;20019;-72
2023/03/08 05:21:48;;;;;;;22.25;11.52;;;9.80;98.20;;;;;;4937879;29;20103;-74
2023/03/08 05:24:14;;;;;;;23.70;11.60;;;9.80;98.70;;;;;;4920492;29;20494;-75
2023/03/08 05:26:41;;;;;;;22.60;12.15;;;9.80;98.20;;;;;;4936648;29;20034;-75
2023/03/08 05:29:09;;;;;;;26.50;11.32;;;9.80;98.30;;;;;;4936178;29;20481;-75
2023/03/08 05:31:37;;;;;;;27.70;13.20;;;9.90;97.70;;;;;;4920487;29;20107;-74
2023/03/08 05:34:09;;;;;;;26.42;14.50;;;9.80;98.40;;;;;;4936512;29;20493;-75
2023/03/08 05:36:36;;;;;;;31.13;14.23;;;9.60;99.90;;;;;;4937860;29;20028;-76
2023/03/08 05:39:03;;;;;;;29.73;14.60;;;9.60;99.90;;;;;;4920928;29;20028;-76
2023/03/08 05:41:49;;;;;;;29.98;15.05;;;9.50;99.90;;;;;;4937346;29;20043;-75
2023/03/08 05:44:21;;;;;;;27.23;15.68;;;9.60;99.90;;;;;;4936557;29;20035;-76
2023/03/08 05:46:51;;;;;;;24.95;14.15;;;9.50;99.90;;;;;;4920403;29;20050;-76
2023/03/08 05:49:18;;;;;;;28.58;12.98;;;9.30;99.90;;;;;;4937912;29;20028;-76
2023/03/08 05:51:44;;;;;;;34.45;13.25;;;9.30;99.90;;;;;;4920181;29;20031;-76
2023/03/08 05:54:10;;;;;;;25.83;14.82;;;9.20;99.90;;;;;;4920355;29;20024;-76
2023/03/08 05:56:37;;;;;;;19.67;11.70;;;9.20;99.90;;;;;;4920179;29;20067;-76
2023/03/08 05:59:08;;;;;;;23.98;11.70;;;9.20;99.90;;;;;;4935947;29;20099;-74
2023/03/08 06:01:34;;;;;;;36.95;17.67;;;9.20;99.90;;;;;;4937086;29;20486;-75
2023/03/08 06:04:22;;;;;;;28.73;15.02;;;9.30;99.90;;;;;;4936870;29;20039;-75
2023/03/08 06:06:50;;;;;;;26.92;13.82;;;9.30;99.90;;;;;;4919886;29;20405;-76
2023/03/08 06:09:18;;;;;;;22.80;11.95;;;9.40;99.90;;;;;;4936140;29;20040;-76
2023/03/08 06:11:45;;;;;;;24.55;12.23;;;9.40;99.90;;;;;;4940996;29;20028;-76
2023/03/08 06:14:11;;;;;;;20.90;11.25;;;9.50;99.90;;;;;;4919808;29;20258;-75
2023/03/08 06:16:38;;;;;;;19.70;9.68;;;9.50;99.90;;;;;;4919561;29;20036;-76
2023/03/08 06:19:04;;;;;;;29.30;15.35;;;9.60;99.90;;;;;;4937067;29;20027;-76
2023/03/08 06:21:31;;;;;;;24.70;14.02;;;9.60;99.90;;;;;;4935564;29;20059;-76
2023/03/08 06:24:01;;;;;;;62.10;32.72;;;9.50;99.90;;;;;;4936769;29;20040;-76
2023/03/08 06:26:27;;;;;;;54.65;26.50;;;9.50;99.90;;;;;;4934717;29;20046;-76
2023/03/08 06:28:54;;;;;;;42.67;27.23;;;9.50;99.90;;;;;;4935675;29;20040;-75
2023/03/08 06:31:23;;;;;;;50.38;29.15;;;9.50;99.90;;;;;;4919343;29;20026;-75
2023/03/08 06:33:51;;;;;;;37.95;24.58;;;9.40;99.90;;;;;;4950932;28;20173;-76
2023/03/08 06:36:21;;;;;;;34.17;21.50;;;9.50;99.90;;;;;;4923378;29;20038;-76
2023/03/08 06:38:49;;;;;;;36.85;22.67;;;9.60;99.90;;;;;;4919358;29;20035;-76
2023/03/08 06:41:16;;;;;;;55.08;31.02;;;9.70;99.90;;;;;;4919675;29;20178;-76
2023/03/08 06:43:44;;;;;;;57.83;31.92;;;9.90;99.90;;;;;;4919410;29;20078;-76
2023/03/08 06:46:15;;;;;;;40.35;22.42;;;10.10;99.90;;;;;;4935147;29;20023;-76
2023/03/08 06:48:41;;;;;;;39.90;21.38;;;10.40;99.90;;;;;;4934784;29;20523;-76
2023/03/08 06:51:08;;;;;;;41.05;23.45;;;10.60;99.90;;;;;;4919535;29;20118;-76
2023/03/08 06:53:37;;;;;;;41.38;25.17;;;10.90;99.90;;;;;;4934987;29;20065;-76
2023/03/08 06:56:10;;;;;;;40.75;26.40;;;11.20;99.90;;;;;;4935070;29;20024;-77
2023/03/08 06:58:37;;;;;;;39.45;22.83;;;11.40;99.90;;;;;;4936334;29;20051;-76
2023/03/08 07:01:04;;;;;;;40.58;24.90;;;11.60;99.90;;;;;;4936003;29;20035;-76
2023/03/08 07:03:31;;;;;;;39.67;25.98;;;11.90;99.90;;;;;;4936994;29;20079;-76
2023/03/08 07:06:02;;;;;;;37.03;22.95;;;12.00;99.90;;;;;;4947837;29;20055;-76
2023/03/08 07:08:27;;;;;;;36.80;21.33;;;12.30;99.90;;;;;;4936219;29;20351;-76
2023/03/08 07:10:53;;;;;;;42.75;27.35;;;12.40;99.90;;;;;;4936242;29;20023;-76
2023/03/08 07:13:22;;;;;;;49.88;26.15;;;12.70;99.90;;;;;;4936112;29;20083;-75
2023/03/08 07:15:48;;;;;;;42.78;24.95;;;12.70;99.30;;;;;;4923228;29;20024;-74
2023/03/08 07:18:15;;;;;;;41.35;26.58;;;12.80;98.00;;;;;;4935660;29;20031;-76
2023/03/08 07:20:40;;;;;;;48.60;24.45;;;12.90;96.90;;;;;;4935607;29;20110;-74
2023/03/08 07:23:06;;;;;;;46.42;22.55;;;13.00;96.70;;;;;;4936186;29;20043;-75
2023/03/08 07:25:32;;;;;;;38.30;21.50;;;13.20;96.30;;;;;;4936149;29;20028;-74
2023/03/08 07:27:59;;;;;;;37.03;21.08;;;13.30;95.00;;;;;;4935735;29;20058;-76
2023/03/08 07:30:25;;;;;;;37.75;19.98;;;13.60;95.00;;;;;;4935911;29;20055;-76
2023/03/08 07:32:54;;;;;;;30.85;14.82;;;13.80;94.40;;;;;;4935305;29;20452;-73
2023/03/08 07:35:19;;;;;;;33.63;16.52;;;14.10;91.40;;;;;;4935637;29;20066;-74
2023/03/08 07:37:47;;;;;;;26.00;13.65;;;14.30;91.40;;;;;;4935641;29;20051;-76
2023/03/08 07:40:15;;;;;;;27.60;13.93;;;14.40;90.70;;;;;;4935877;29;20036;-76
2023/03/08 07:42:41;;;;;;;27.27;14.93;;;14.60;90.30;;;;;;4926572;29;20070;-76
2023/03/08 07:45:23;;;;;;;25.02;15.05;;;14.80;89.20;;;;;;4903219;29;20133;-76
2023/03/08 07:47:51;;;;;;;30.63;17.60;;;14.90;85.90;;;;;;4932766;29;20497;-76
2023/03/08 07:50:18;;;;;;;28.42;16.25;;;15.00;88.50;;;;;;4935724;29;20477;-76
2023/03/08 07:52:43;;;;;;;28.42;12.70;;;15.10;86.90;;;;;;4935751;29;20043;-76
2023/03/08 07:55:10;;;;;;;17.85;9.73;;;15.10;87.60;;;;;;4934542;29;20020;-76
2023/03/08 07:57:37;;;;;;;20.60;9.95;;;14.90;87.30;;;;;;4935459;29;20036;-76
2023/03/08 08:00:07;;;;;;;19.08;7.38;;;14.80;85.50;;;;;;4934720;29;20032;-74
2023/03/08 08:02:38;;;;;;;19.20;9.32;;;14.90;84.80;;;;;;4918969;29;20064;-75
2023/03/08 08:05:04;;;;;;;18.00;8.77;;;14.90;83.50;;;;;;4917652;29;20398;-76
2023/03/08 08:07:30;;;;;;;19.73;8.07;;;14.90;84.70;;;;;;4918271;29;20055;-76
2023/03/08 08:09:56;;;;;;;19.67;7.97;;;15.00;83.70;;;;;;4916715;29;20036;-75
2023/03/08 08:12:22;;;;;;;13.75;5.97;;;15.00;84.20;;;;;;4916975;29;20076;-75
2023/03/08 08:14:51;;;;;;;17.80;7.20;;;15.10;83.50;;;;;;4919365;29;20493;-75
2023/03/08 08:17:18;;;;;;;17.30;8.45;;;15.30;83.90;;;;;;4918398;29;20027;-76
2023/03/08 08:19:44;;;;;;;23.38;8.07;;;15.30;82.30;;;;;;4923771;29;20032;-77
2023/03/08 08:22:10;;;;;;;17.13;7.57;;;15.70;84.00;;;;;;4933009;29;20024;-76
2023/03/08 08:24:36;;;;;;;21.23;10.20;;;15.80;83.80;;;;;;4935202;29;20483;-76
2023/03/08 08:27:02;;;;;;;20.83;10.63;;;15.90;80.90;;;;;;4935566;29;20462;-76
2023/03/08 08:29:28;;;;;;;24.17;10.93;;;16.00;83.00;;;;;;4935371;29;20040;-77
2023/03/08 08:31:55;;;;;;;17.98;9.85;;;16.00;81.90;;;;;;4935299;29;20430;-77
2023/03/08 08:34:20;;;;;;;20.02;9.85;;;16.20;82.70;;;;;;4935383;29;20042;-77
2023/03/08 08:36:46;;;;;;;17.30;10.10;;;16.10;79.80;;;;;;4935606;29;20103;-76
2023/03/08 08:39:12;;;;;;;19.02;10.63;;;16.30;81.20;;;;;;4935229;29;20035;-76
2023/03/08 08:41:38;;;;;;;17.42;9.23;;;16.30;83.90;;;;;;4935407;29;20443;-76
2023/03/08 08:44:04;;;;;;;16.73;8.73;;;16.40;82.10;;;;;;4935011;29;20036;-77
2023/03/08 08:46:32;;;;;;;17.27;9.70;;;16.60;80.70;;;;;;4935100;29;20028;-77
2023/03/08 08:48:59;;;;;;;23.45;10.75;;;17.10;84.50;;;;;;4935992;29;20019;-76
2023/03/08 08:51:25;;;;;;;18.77;10.18;;;17.30;84.90;;;;;;4938988;29;20355;-76
2023/03/08 08:53:51;;;;;;;18.50;10.35;;;17.40;79.90;;;;;;4938672;29;20031;-76
2023/03/08 08:56:20;;;;;;;18.10;10.02;;;17.40;77.10;;;;;;4938750;29;20039;-75
2023/03/08 08:58:47;;;;;;;15.18;9.60;;;17.30;80.40;;;;;;4938590;29;20063;-76
2023/03/08 09:01:21;;;;;;;20.33;10.30;;;17.30;80.60;;;;;;4938838;29;20035;-75
2023/03/08 09:03:48;;;;;;;19.75;9.88;;;17.10;78.30;;;;;;4938366;29;20044;-76
2023/03/08 09:06:15;;;;;;;16.50;8.45;;;17.00;79.40;;;;;;4938226;29;20126;-75
2023/03/08 09:08:41;;;;;;;14.90;6.43;;;16.90;77.50;;;;;;4938288;29;20462;-77
2023/03/08 09:11:09;;;;;;;10.35;5.40;;;16.70;79.00;;;;;;4938436;29;20067;-76
2023/03/08 09:13:39;;;;;;;11.63;5.60;;;16.70;79.10;;;;;;4938399;29;20035;-76
2023/03/08 09:16:05;;;;;;;8.63;4.53;;;16.90;78.30;;;;;;4938133;29;20023;-76
2023/03/08 09:18:31;;;;;;;9.40;2.95;;;17.00;80.20;;;;;;4938054;29;20032;-76
2023/03/08 09:20:59;;;;;;;8.15;3.42;;;16.90;77.70;;;;;;4938020;29;20390;-76
2023/03/08 09:23:25;;;;;;;11.65;3.80;;;16.60;79.40;;;;;;4938244;29;20088;-76
2023/03/08 09:25:56;;;;;;;6.22;3.92;;;16.70;77.40;;;;;;4937808;29;20473;-76
2023/03/08 09:28:22;;;;;;;10.43;5.35;;;16.80;78.70;;;;;;4938326;29;20036;-76
2023/03/08 09:30:47;;;;;;;13.93;5.25;;;16.80;78.80;;;;;;4937892;29;20083;-76
2023/03/08 09:33:13;;;;;;;13.57;4.53;;;16.70;80.00;;;;;;4937968;29;20433;-76
2023/03/08 09:35:39;;;;;;;7.70;4.07;;;16.70;81.10;;;;;;4936117;29;20064;-74
2023/03/08 09:38:05;;;;;;;7.30;4.40;;;16.90;77.20;;;;;;4937954;29;20032;-76
2023/03/08 09:40:44;;;;;;;10.73;5.53;;;17.10;77.20;;;;;;4937717;29;20027;-76
2023/03/08 09:43:23;;;;;;;14.73;6.32;;;17.30;77.90;;;;;;4937618;29;20063;-77
2023/03/08 09:45:53;;;;;;;12.23;6.45;;;17.30;77.60;;;;;;4938014;29;20110;-76
2023/03/08 09:48:29;;;;;;;23.00;6.28;;;17.40;77.60;;;;;;4937550;29;20086;-76
2023/03/08 09:51:03;;;;;;;8.10;3.72;;;18.00;82.00;;;;;;4937747;29;20368;-77
2023/03/08 09:53:36;;;;;;;7.15;3.67;;;18.00;79.10;;;;;;4937646;29;20036;-77
2023/03/08 09:56:12;;;;;;;10.55;4.55;;;18.20;79.80;;;;;;4937636;29;20490;-76
2023/03/08 09:59:05;;;;;;;7.13;3.25;;;18.40;77.10;;;;;;4937651;29;20067;-76
2023/03/08 10:01:42;;;;;;;8.60;3.95;;;18.40;76.80;;;;;;4922645;29;20134;-76
2023/03/08 10:04:33;;;;;;;9.70;4.03;;;18.10;76.30;;;;;;4937220;29;20082;-77
2023/03/08 10:07:04;;;;;;;22.05;3.05;;;18.00;77.90;;;;;;4937189;29;20059;-75
2023/03/08 10:09:36;;;;;;;5.03;2.53;;;18.00;76.10;;;;;;4937177;29;20043;-76
2023/03/08 10:12:28;;;;;;;6.68;2.83;;;17.80;76.20;;;;;;4937379;29;20035;-75
2023/03/08 10:15:07;;;;;;;4.95;2.28;;;17.90;76.00;;;;;;4937042;29;20032;-76
2023/03/08 10:17:42;;;;;;;5.22;1.92;;;17.60;76.20;;;;;;4937027;29;20059;-79
2023/03/08 10:20:28;;;;;;;5.07;2.08;;;17.50;74.30;;;;;;4925700;29;20031;-76
2023/03/08 10:23:19;;;;;;;5.30;2.20;;;17.80;73.40;;;;;;4936975;29;20107;-76
2023/03/08 10:25:46;;;;;;;3.35;2.33;;;17.90;72.80;;;;;;4927572;29;20134;-74
2023/03/08 10:28:18;;;;;;;4.10;2.42;;;18.00;72.20;;;;;;4937014;29;20032;-76
2023/03/08 10:30:48;;;;;;;2.90;1.63;;;18.10;75.30;;;;;;4936909;29;20375;-72
2023/03/08 10:33:17;;;;;;;5.13;2.03;;;18.40;72.60;;;;;;4936834;29;20032;-76
2023/03/08 10:36:08;;;;;;;4.43;2.05;;;18.40;74.30;;;;;;4937126;29;20418;-75
2023/03/08 10:38:35;;;;;;;6.05;2.22;;;18.40;72.30;;;;;;4936722;29;20035;-75
2023/03/08 10:41:15;;;;;;;4.80;2.13;;;18.00;70.50;;;;;;4937000;29;20024;-74
2023/03/08 10:43:51;;;;;;;5.75;2.85;;;17.90;72.60;;;;;;4936391;29;20035;-75
2023/03/08 10:46:19;;;;;;;6.20;2.25;;;18.00;72.40;;;;;;4936398;29;20031;-74
2023/03/08 10:48:45;;;;;;;6.38;2.65;;;17.90;72.00;;;;;;4919372;29;20066;-75
2023/03/08 10:51:19;;;;;;;6.32;2.95;;;17.90;72.70;;;;;;4936677;29;20042;-77
2023/03/08 10:54:01;;;;;;;4.45;2.50;;;18.00;75.20;;;;;;4936386;29;20031;-74
2023/03/08 10:56:31;;;;;;;5.18;2.47;;;18.10;72.40;;;;;;4936259;29;20526;-77
2023/03/08 10:58:58;;;;;;;3.92;2.15;;;18.20;74.20;;;;;;4936244;29;20036;-73
2023/03/08 11:01:25;;;;;;;6.57;2.42;;;17.90;73.40;;;;;;4936231;29;20032;-75
2023/03/08 11:04:12;;;;;;;2.65;1.80;;;18.20;72.70;;;;;;4948985;28;20218;-75
2023/03/08 11:06:38;;;;;;;4.97;2.53;;;18.10;73.00;;;;;;4936299;29;20047;-75
2023/03/08 11:09:21;;;;;;;7.22;2.30;;;18.20;72.90;;;;;;4936189;29;20144;-79
2023/03/08 11:11:47;;;;;;;4.60;2.47;;;18.20;72.30;;;;;;4935889;29;20020;-76
2023/03/08 11:14:14;;;;;;;3.65;1.70;;;18.20;71.70;;;;;;4936000;29;20140;-75
2023/03/08 11:16:58;;;;;;;4.30;2.35;;;18.30;70.20;;;;;;4919249;29;20031;-76
2023/03/08 11:19:58;;;;;;;4.78;2.50;;;18.20;71.60;;;;;;4936071;29;20036;-75
2023/03/08 11:22:37;;;;;;;6.10;2.22;;;18.10;73.10;;;;;;4935914;29;20107;-75
2023/03/08 11:25:24;;;;;;;6.95;2.50;;;17.80;69.70;;;;;;4918931;29;20039;-76
2023/03/08 11:27:56;;;;;;;5.43;2.90;;;17.90;70.50;;;;;;4936164;29;20111;-76
2023/03/08 11:30:36;;;;;;;4.88;2.00;;;17.80;70.30;;;;;;4935826;29;20036;-77
2023/03/08 11:33:24;;;;;;;5.82;2.58;;;17.90;72.40;;;;;;4924180;29;20051;-77
2023/03/08 11:36:05;;;;;;;6.25;3.22;;;17.80;71.50;;;;;;4935956;29;20038;-76
2023/03/08 11:38:32;;;;;;;4.05;2.30;;;17.80;72.40;;;;;;4936495;29;20111;-77
2023/03/08 11:41:15;;;;;;;4.95;2.40;;;17.60;71.80;;;;;;4935754;29;20031;-77
2023/03/08 11:43:53;;;;;;;6.25;2.90;;;17.40;72.60;;;;;;4935450;29;20040;-77
2023/03/08 11:46:19;;;;;;;11.80;2.53;;;17.40;72.20;;;;;;4935775;29;20028;-76
2023/03/08 11:49:00;;;;;;;5.03;3.05;;;17.10;72.30;;;;;;4935571;29;20034;-76
2023/03/08 11:51:32;;;;;;;6.78;2.85;;;17.40;72.30;;;;;;4935773;29;20486;-76
2023/03/08 11:54:12;;;;;;;4.95;2.45;;;17.40;71.50;;;;;;4935588;29;20115;-78
2023/03/08 11:56:47;;;;;;;5.20;2.85;;;17.50;72.70;;;;;;4935529;29;20031;-77
2023/03/08 11:59:23;;;;;;;6.90;2.60;;;17.50;73.00;;;;;;4935619;29;20060;-76
2023/03/08 12:02:10;;;;;;;6.00;2.65;;;17.40;72.20;;;;;;4935283;29;20036;-71
2023/03/08 12:04:46;;;;;;;6.75;2.63;;;17.10;72.20;;;;;;4935629;29;20040;-72
2023/03/08 12:07:24;;;;;;;8.85;3.20;;;17.20;71.70;;;;;;4935477;29;20051;-75
2023/03/08 12:10:13;;;;;;;9.45;2.67;;;17.00;72.90;;;;;;4935429;29;20044;-77
2023/03/08 12:12:58;;;;;;;6.25;3.17;;;17.30;74.40;;;;;;4935554;29;20107;-76
2023/03/08 12:15:54;;;;;;;5.28;3.05;;;17.20;73.30;;;;;;4935483;29;20030;-76
2023/03/08 12:18:45;;;;;;;8.38;2.00;;;17.30;74.40;;;;;;4922793;29;20103;-77
2023/03/08 12:21:23;;;;;;;9.05;3.65;;;17.30;71.90;;;;;;4935221;29;20486;-75
2023/03/08 12:23:58;;;;;;;8.13;3.40;;;17.30;74.30;;;;;;4935929;29;20032;-76
2023/03/08 12:26:44;;;;;;;6.32;3.30;;;17.30;72.30;;;;;;4938795;29;20027;-74
2023/03/08 12:29:38;;;;;;;5.47;2.78;;;17.00;71.40;;;;;;4938858;29;20497;-76
2023/03/08 12:32:05;;;;;;;8.82;4.10;;;17.00;72.10;;;;;;4939039;29;20504;-76
2023/03/08 12:34:40;;;;;;;5.65;2.70;;;17.10;74.10;;;;;;4938697;29;20470;-75
2023/03/08 12:37:23;;;;;;;12.98;5.55;;;17.10;73.70;;;;;;4938753;29;20024;-74
2023/03/08 12:40:04;;;;;;;15.73;7.40;;;17.00;72.70;;;;;;4938936;29;20043;-75
2023/03/08 12:42:37;;;;;;;16.50;6.95;;;17.00;74.20;;;;;;4938756;29;20035;-75
2023/03/08 12:45:27;;;;;;;7.30;2.75;;;17.20;74.50;;;;;;4938909;29;20110;-75
2023/03/08 12:48:04;;;;;;;14.25;4.95;;;17.10;72.30;;;;;;4928294;29;20036;-76
2023/03/08 12:50:40;;;;;;;9.20;4.00;;;17.10;73.60;;;;;;4938704;29;20115;-76
2023/03/08 12:53:44;;;;;;;7.30;3.72;;;17.10;72.40;;;;;;4938834;29;20024;-76
2023/03/08 12:56:10;;;;;;;7.70;3.40;;;17.00;73.30;;;;;;4938621;29;20442;-75